sensor_id;sensor_type;location;lat;lon;timestamp;pressure;altitude;pressure_sealevel;temperature;humidity
42945;BME280;28584;42.636;23.294;2022-08-01T00:02:24;163153.66;;;17.25;96.66
42945;BME280;28584;42.636;23.294;2022-08-01T00:04:49;163125.44;;;17.14;95.81
42945;BME280;28584;42.636;23.294;2022-08-01T00:07:15;163121.41;;;17.13;95.47
42945;BME280;28584;42.636;23.294;2022-08-01T00:09:40;163108.03;;;17.08;95.57
42945;BME280;28584;42.636;23.294;2022-08-01T00:12:06;163069.06;;;16.93;96.58
42945;BME280;28584;42.636;23.294;2022-08-01T00:14:31;163073.09;;;16.95;96.02
42945;BME280;28584;42.636;23.294;2022-08-01T00:16:57;163027.47;;;16.78;96.42
42945;BME280;28584;42.636;23.294;2022-08-01T00:19:23;163026.09;;;16.77;93.20
42945;BME280;28584;42.636;23.294;2022-08-01T00:21:48;163030.13;;;16.79;91.52
42945;BME280;28584;42.636;23.294;2022-08-01T00:24:13;163034.16;;;16.80;89.79
42945;BME280;28584;42.636;23.294;2022-08-01T00:26:39;163032.84;;;16.80;89.08
42945;BME280;28584;42.636;23.294;2022-08-01T00:29:04;163055.69;;;16.88;87.07
42945;BME280;28584;42.636;23.294;2022-08-01T00:31:29;163065.03;;;16.92;85.88
42945;BME280;28584;42.636;23.294;2022-08-01T00:33:55;163073.09;;;16.95;86.00
42945;BME280;28584;42.636;23.294;2022-08-01T00:36:20;163078.50;;;16.97;85.58
42945;BME280;28584;42.636;23.294;2022-08-01T00:38:46;163055.69;;;16.88;86.44
42945;BME280;28584;42.636;23.294;2022-08-01T00:41:11;163065.03;;;16.92;85.85
42945;BME280;28584;42.636;23.294;2022-08-01T00:43:37;163054.31;;;16.88;84.86
42945;BME280;28584;42.636;23.294;2022-08-01T00:46:02;163059.69;;;16.90;82.73
42945;BME280;28584;42.636;23.294;2022-08-01T00:48:27;163051.66;;;16.87;82.49
42945;BME280;28584;42.636;23.294;2022-08-01T00:50:53;163071.75;;;16.94;81.27
42945;BME280;28584;42.636;23.294;2022-08-01T00:53:18;163056.97;;;16.89;82.68
42945;BME280;28584;42.636;23.294;2022-08-01T00:55:44;163050.28;;;16.86;84.98
42945;BME280;28584;42.636;23.294;2022-08-01T00:58:10;163023.44;;;16.76;85.44
42945;BME280;28584;42.636;23.294;2022-08-01T01:00:35;163006.00;;;16.70;85.85
42945;BME280;28584;42.636;23.294;2022-08-01T01:03:01;162997.94;;;16.67;86.42
42945;BME280;28584;42.636;23.294;2022-08-01T01:05:27;162996.59;;;16.66;85.91
42945;BME280;28584;42.636;23.294;2022-08-01T01:08:02;162985.84;;;16.62;87.84
42945;BME280;28584;42.636;23.294;2022-08-01T01:10:43;162976.50;;;16.59;89.47
42945;BME280;28584;42.636;23.294;2022-08-01T01:15:59;162965.72;;;16.55;91.30
42945;BME280;28584;42.636;23.294;2022-08-01T01:18:35;162934.88;;;16.43;91.70
42945;BME280;28584;42.636;23.294;2022-08-01T01:29:12;162877.13;;;16.21;89.92
42945;BME280;28584;42.636;23.294;2022-08-01T01:31:51;162874.47;;;16.20;88.83
42945;BME280;28584;42.636;23.294;2022-08-01T01:34:20;162889.22;;;16.26;84.46
42945;BME280;28584;42.636;23.294;2022-08-01T01:36:48;162903.97;;;16.31;79.21
42945;BME280;28584;42.636;23.294;2022-08-01T01:39:15;162928.09;;;16.40;72.53
42945;BME280;28584;42.636;23.294;2022-08-01T01:41:43;162968.44;;;16.56;66.99
42945;BME280;28584;42.636;23.294;2022-08-01T01:44:10;163050.28;;;16.86;62.42
42945;BME280;28584;42.636;23.294;2022-08-01T01:46:36;163121.41;;;17.13;59.83
42945;BME280;28584;42.636;23.294;2022-08-01T01:49:03;163171.09;;;17.31;58.35
42945;BME280;28584;42.636;23.294;2022-08-01T01:51:30;163177.81;;;17.34;56.99
42945;BME280;28584;42.636;23.294;2022-08-01T01:53:58;163196.59;;;17.41;56.26
42945;BME280;28584;42.636;23.294;2022-08-01T01:56:26;163179.16;;;17.34;56.24
42945;BME280;28584;42.636;23.294;2022-08-01T01:58:55;163171.09;;;17.31;56.26
42945;BME280;28584;42.636;23.294;2022-08-01T02:01:22;163114.72;;;17.10;56.79
42945;BME280;28584;42.636;23.294;2022-08-01T02:03:49;163071.75;;;16.94;58.13
42945;BME280;28584;42.636;23.294;2022-08-01T02:06:16;163015.38;;;16.73;58.39
42945;BME280;28584;42.636;23.294;2022-08-01T02:08:42;162979.16;;;16.60;59.74
42945;BME280;28584;42.636;23.294;2022-08-01T02:11:09;162926.78;;;16.40;60.45
42945;BME280;28584;42.636;23.294;2022-08-01T02:13:49;162908.00;;;16.33;60.47
42945;BME280;28584;42.636;23.294;2022-08-01T02:16:17;162874.47;;;16.20;60.88
42945;BME280;28584;42.636;23.294;2022-08-01T02:18:43;162890.53;;;16.26;59.27
42945;BME280;28584;42.636;23.294;2022-08-01T02:21:12;162917.38;;;16.36;58.16
42945;BME280;28584;42.636;23.294;2022-08-01T02:23:39;162941.59;;;16.46;57.39
42945;BME280;28584;42.636;23.294;2022-08-01T02:26:14;162987.22;;;16.63;56.91
42945;BME280;28584;42.636;23.294;2022-08-01T02:28:47;162992.56;;;16.65;57.00
42945;BME280;28584;42.636;23.294;2022-08-01T02:31:17;163020.75;;;16.75;57.16
42945;BME280;28584;42.636;23.294;2022-08-01T02:33:58;163035.53;;;16.81;57.35
42945;BME280;28584;42.636;23.294;2022-08-01T02:36:26;163043.59;;;16.84;57.34
42945;BME280;28584;42.636;23.294;2022-08-01T02:38:54;163051.66;;;16.87;57.46
42945;BME280;28584;42.636;23.294;2022-08-01T02:41:21;163086.50;;;17.00;56.95
42945;BME280;28584;42.636;23.294;2022-08-01T02:43:50;163081.16;;;16.98;57.81
42945;BME280;28584;42.636;23.294;2022-08-01T02:46:21;163089.22;;;17.01;57.80
42945;BME280;28584;42.636;23.294;2022-08-01T02:48:50;163121.41;;;17.13;57.64
42945;BME280;28584;42.636;23.294;2022-08-01T02:51:19;163136.19;;;17.18;57.51
42945;BME280;28584;42.636;23.294;2022-08-01T02:53:47;163134.88;;;17.18;57.72
42945;BME280;28584;42.636;23.294;2022-08-01T02:56:14;163146.91;;;17.22;57.78
42945;BME280;28584;42.636;23.294;2022-08-01T02:58:41;163181.84;;;17.35;57.48
42945;BME280;28584;42.636;23.294;2022-08-01T03:01:09;163167.06;;;17.30;57.55
42945;BME280;28584;42.636;23.294;2022-08-01T03:03:37;163167.06;;;17.30;57.99
42945;BME280;28584;42.636;23.294;2022-08-01T03:06:03;163181.84;;;17.35;58.25
42945;BME280;28584;42.636;23.294;2022-08-01T03:08:30;163188.53;;;17.38;58.18
42945;BME280;28584;42.636;23.294;2022-08-01T03:10:57;163199.38;;;17.42;58.13
42945;BME280;28584;42.636;23.294;2022-08-01T03:13:25;163214.13;;;17.47;57.67
42945;BME280;28584;42.636;23.294;2022-08-01T03:15:53;163193.94;;;17.40;58.02
42945;BME280;28584;42.636;23.294;2022-08-01T03:18:21;163193.94;;;17.40;58.51
42945;BME280;28584;42.636;23.294;2022-08-01T03:20:50;163180.53;;;17.35;58.90
42945;BME280;28584;42.636;23.294;2022-08-01T03:23:17;163179.16;;;17.34;58.53
42945;BME280;28584;42.636;23.294;2022-08-01T03:25:44;163242.31;;;17.58;57.59
42945;BME280;28584;42.636;23.294;2022-08-01T03:28:13;163255.75;;;17.63;57.01
42945;BME280;28584;42.636;23.294;2022-08-01T03:30:40;163271.84;;;17.69;57.09
42945;BME280;28584;42.636;23.294;2022-08-01T03:33:06;163269.19;;;17.68;57.32
42945;BME280;28584;42.636;23.294;2022-08-01T03:35:39;163290.66;;;17.76;57.32
42945;BME280;28584;42.636;23.294;2022-08-01T03:38:09;163340.34;;;17.94;56.94
42945;BME280;28584;42.636;23.294;2022-08-01T03:43:57;163403.53;;;18.18;56.13
42945;BME280;28584;42.636;23.294;2022-08-01T03:46:34;163450.56;;;18.35;56.02
42945;BME280;28584;42.636;23.294;2022-08-01T03:49:06;163476.09;;;18.45;55.41
42945;BME280;28584;42.636;23.294;2022-08-01T03:51:33;163501.66;;;18.54;55.23
42945;BME280;28584;42.636;23.294;2022-08-01T03:54:00;163539.28;;;18.68;54.91
42945;BME280;28584;42.636;23.294;2022-08-01T03:57:03;163580.94;;;18.84;54.81
42945;BME280;28584;42.636;23.294;2022-08-01T03:59:29;163610.50;;;18.95;54.06
42945;BME280;28584;42.636;23.294;2022-08-01T04:01:56;163645.47;;;19.08;53.72
42945;BME280;28584;42.636;23.294;2022-08-01T04:04:23;163652.19;;;19.11;53.49
42945;BME280;28584;42.636;23.294;2022-08-01T04:06:48;163692.53;;;19.26;53.44
42945;BME280;28584;42.636;23.294;2022-08-01T04:09:19;163712.72;;;19.33;52.82
42945;BME280;28584;42.636;23.294;2022-08-01T04:11:45;163762.50;;;19.52;52.54
42945;BME280;28584;42.636;23.294;2022-08-01T04:14:10;163779.94;;;19.58;52.21
42945;BME280;28584;42.636;23.294;2022-08-01T04:16:36;163784.00;;;19.60;52.51
42945;BME280;28584;42.636;23.294;2022-08-01T04:19:03;163814.94;;;19.71;52.15
42945;BME280;28584;42.636;23.294;2022-08-01T04:21:31;163831.03;;;19.77;51.88
42945;BME280;28584;42.636;23.294;2022-08-01T04:24:16;163855.25;;;19.86;52.10
42945;BME280;28584;42.636;23.294;2022-08-01T04:26:44;163890.25;;;19.99;51.07
42945;BME280;28584;42.636;23.294;2022-08-01T04:29:11;163883.53;;;19.97;50.81
42945;BME280;28584;42.636;23.294;2022-08-01T04:31:42;163894.28;;;20.01;51.12
42945;BME280;28584;42.636;23.294;2022-08-01T04:34:11;163919.81;;;20.10;50.98
42945;BME280;28584;42.636;23.294;2022-08-01T04:36:38;163992.53;;;20.37;50.99
42945;BME280;28584;42.636;23.294;2022-08-01T04:39:04;164059.81;;;20.62;50.13
42945;BME280;28584;42.636;23.294;2022-08-01T04:41:31;164000.63;;;20.40;49.50
42945;BME280;28584;42.636;23.294;2022-08-01T04:43:57;164019.47;;;20.47;50.05
42945;BME280;28584;42.636;23.294;2022-08-01T04:46:28;164097.47;;;20.76;49.26
42945;BME280;28584;42.636;23.294;2022-08-01T04:48:55;164129.81;;;20.88;48.75
42945;BME280;28584;42.636;23.294;2022-08-01T04:51:21;164119.00;;;20.84;48.54
42945;BME280;28584;42.636;23.294;2022-08-01T04:53:48;164164.81;;;21.01;48.34
42945;BME280;28584;42.636;23.294;2022-08-01T04:56:14;164190.44;;;21.11;48.85
42945;BME280;28584;42.636;23.294;2022-08-01T04:58:41;164186.41;;;21.09;49.19
42945;BME280;28584;42.636;23.294;2022-08-01T05:01:07;164183.66;;;21.08;49.05
42945;BME280;28584;42.636;23.294;2022-08-01T05:03:32;164164.81;;;21.01;48.83
42945;BME280;28584;42.636;23.294;2022-08-01T05:05:58;164148.72;;;20.95;48.69
42945;BME280;28584;42.636;23.294;2022-08-01T05:08:24;164246.97;;;21.32;48.99
42945;BME280;28584;42.636;23.294;2022-08-01T05:10:49;164257.75;;;21.36;48.36
42945;BME280;28584;42.636;23.294;2022-08-01T05:13:15;164319.66;;;21.59;49.03
42945;BME280;28584;42.636;23.294;2022-08-01T05:15:40;164276.59;;;21.43;47.70
42945;BME280;28584;42.636;23.294;2022-08-01T05:18:06;164294.06;;;21.49;48.32
42945;BME280;28584;42.636;23.294;2022-08-01T05:20:32;164361.44;;;21.75;47.32
42945;BME280;28584;42.636;23.294;2022-08-01T05:22:57;164318.34;;;21.58;47.30
42945;BME280;28584;42.636;23.294;2022-08-01T05:25:23;164399.16;;;21.89;46.78
42945;BME280;28584;42.636;23.294;2022-08-01T05:27:48;164450.34;;;22.08;46.58
42945;BME280;28584;42.636;23.294;2022-08-01T05:30:14;164443.63;;;22.05;46.52
42945;BME280;28584;42.636;23.294;2022-08-01T05:32:39;164463.81;;;22.13;46.15
42945;BME280;28584;42.636;23.294;2022-08-01T05:35:06;164364.16;;;21.76;46.52
42945;BME280;28584;42.636;23.294;2022-08-01T05:37:32;164368.22;;;21.77;46.79
42945;BME280;28584;42.636;23.294;2022-08-01T05:39:57;164424.78;;;21.98;46.61
42945;BME280;28584;42.636;23.294;2022-08-01T05:42:23;164449.00;;;22.07;46.97
42945;BME280;28584;42.636;23.294;2022-08-01T05:44:48;164536.56;;;22.40;46.31
42945;BME280;28584;42.636;23.294;2022-08-01T05:47:16;164488.06;;;22.22;46.69
42945;BME280;28584;42.636;23.294;2022-08-01T05:49:42;164595.94;;;22.62;45.43
42945;BME280;28584;42.636;23.294;2022-08-01T05:52:08;164543.28;;;22.42;45.43
42945;BME280;28584;42.636;23.294;2022-08-01T05:54:34;164439.59;;;22.04;46.64
42945;BME280;28584;42.636;23.294;2022-08-01T05:57:00;164585.09;;;22.58;45.76
42945;BME280;28584;42.636;23.294;2022-08-01T05:59:27;164528.47;;;22.37;46.49
42945;BME280;28584;42.636;23.294;2022-08-01T06:01:53;164575.69;;;22.54;45.76
42945;BME280;28584;42.636;23.294;2022-08-01T06:04:18;164469.22;;;22.15;46.74
42945;BME280;28584;42.636;23.294;2022-08-01T06:06:44;164504.25;;;22.28;46.22
42945;BME280;28584;42.636;23.294;2022-08-01T06:09:09;164457.09;;;22.10;46.96
42945;BME280;28584;42.636;23.294;2022-08-01T06:11:35;164558.16;;;22.48;46.91
42945;BME280;28584;42.636;23.294;2022-08-01T06:14:00;164571.66;;;22.53;46.14
42945;BME280;28584;42.636;23.294;2022-08-01T06:16:25;164668.66;;;22.89;45.29
42945;BME280;28584;42.636;23.294;2022-08-01T06:18:51;164564.94;;;22.50;46.22
42945;BME280;28584;42.636;23.294;2022-08-01T06:21:16;164610.75;;;22.67;46.30
42945;BME280;28584;42.636;23.294;2022-08-01T06:23:42;164687.53;;;22.96;46.12
42945;BME280;28584;42.636;23.294;2022-08-01T06:26:08;164665.97;;;22.88;45.78
42945;BME280;28584;42.636;23.294;2022-08-01T06:28:33;164714.50;;;23.06;45.64
42945;BME280;28584;42.636;23.294;2022-08-01T06:30:58;164719.91;;;23.08;45.42
42945;BME280;28584;42.636;23.294;2022-08-01T06:33:24;164802.16;;;23.38;45.10
42945;BME280;28584;42.636;23.294;2022-08-01T06:35:50;164748.19;;;23.18;45.49
42945;BME280;28584;42.636;23.294;2022-08-01T06:38:16;164612.06;;;22.68;46.45
42945;BME280;28584;42.636;23.294;2022-08-01T06:40:41;164674.06;;;22.91;46.59
42945;BME280;28584;42.636;23.294;2022-08-01T06:43:07;164757.69;;;23.22;45.26
42945;BME280;28584;42.636;23.294;2022-08-01T06:45:33;164765.78;;;23.25;45.18
42945;BME280;28584;42.636;23.294;2022-08-01T06:47:58;164838.59;;;23.52;45.53
42945;BME280;28584;42.636;23.294;2022-08-01T06:50:23;164736.09;;;23.14;46.22
42945;BME280;28584;42.636;23.294;2022-08-01T06:52:49;164701.03;;;23.01;46.50
42945;BME280;28584;42.636;23.294;2022-08-01T06:55:14;164906.00;;;23.77;46.72
42945;BME280;28584;42.636;23.294;2022-08-01T06:57:48;164908.69;;;23.78;45.02
42945;BME280;28584;42.636;23.294;2022-08-01T07:00:14;164900.59;;;23.75;45.16
42945;BME280;28584;42.636;23.294;2022-08-01T07:02:41;164800.84;;;23.38;46.45
42945;BME280;28584;42.636;23.294;2022-08-01T07:05:06;164889.81;;;23.71;46.50
42945;BME280;28584;42.636;23.294;2022-08-01T07:07:32;164984.25;;;24.06;45.75
42945;BME280;28584;42.636;23.294;2022-08-01T07:09:57;165019.34;;;24.19;45.96
42945;BME280;28584;42.636;23.294;2022-08-01T07:12:23;164865.50;;;23.62;45.93
42945;BME280;28584;42.636;23.294;2022-08-01T07:14:48;164698.34;;;23.00;47.25
42945;BME280;28584;42.636;23.294;2022-08-01T07:17:14;164647.13;;;22.81;47.50
42945;BME280;28584;42.636;23.294;2022-08-01T07:19:39;164843.97;;;23.54;46.86
42945;BME280;28584;42.636;23.294;2022-08-01T07:22:04;164655.22;;;22.84;47.62
42945;BME280;28584;42.636;23.294;2022-08-01T07:24:30;164718.53;;;23.07;48.19
42945;BME280;28584;42.636;23.294;2022-08-01T07:26:57;164800.84;;;23.38;47.38
42945;BME280;28584;42.636;23.294;2022-08-01T07:29:26;164764.41;;;23.24;48.12
42945;BME280;28584;42.636;23.294;2022-08-01T07:31:52;164960.00;;;23.97;47.58
42945;BME280;28584;42.636;23.294;2022-08-01T07:34:18;164852.06;;;23.57;46.80
42945;BME280;28584;42.636;23.294;2022-08-01T07:36:44;164767.09;;;23.25;47.24
42945;BME280;28584;42.636;23.294;2022-08-01T07:39:09;164585.09;;;22.58;48.45
42945;BME280;28584;42.636;23.294;2022-08-01T07:41:35;164587.84;;;22.59;49.35
42945;BME280;28584;42.636;23.294;2022-08-01T07:44:00;164674.06;;;22.91;48.99
42945;BME280;28584;42.636;23.294;2022-08-01T07:46:25;164825.09;;;23.47;47.83
42945;BME280;28584;42.636;23.294;2022-08-01T07:48:51;164667.34;;;22.88;47.40
42945;BME280;28584;42.636;23.294;2022-08-01T07:51:16;164815.69;;;23.43;47.35
42945;BME280;28584;42.636;23.294;2022-08-01T07:53:42;164976.16;;;24.03;45.87
42945;BME280;28584;42.636;23.294;2022-08-01T07:56:07;164916.78;;;23.81;45.53
42945;BME280;28584;42.636;23.294;2022-08-01T07:58:33;165035.53;;;24.25;45.57
42945;BME280;28584;42.636;23.294;2022-08-01T08:00:59;165024.75;;;24.21;46.41
42945;BME280;28584;42.636;23.294;2022-08-01T08:03:24;165213.69;;;24.91;45.84
42945;BME280;28584;42.636;23.294;2022-08-01T08:05:50;164981.56;;;24.05;44.78
42945;BME280;28584;42.636;23.294;2022-08-01T08:08:15;164919.47;;;23.82;46.93
42945;BME280;28584;42.636;23.294;2022-08-01T08:10:42;164903.31;;;23.76;46.27
42945;BME280;28584;42.636;23.294;2022-08-01T08:13:08;164895.22;;;23.73;46.29
42945;BME280;28584;42.636;23.294;2022-08-01T08:15:33;164711.81;;;23.05;46.99
42945;BME280;28584;42.636;23.294;2022-08-01T08:17:58;164728.00;;;23.11;47.62
42945;BME280;28584;42.636;23.294;2022-08-01T08:20:24;164612.06;;;22.68;48.16
42945;BME280;28584;42.636;23.294;2022-08-01T08:22:54;164475.94;;;22.17;49.79
42945;BME280;28584;42.636;23.294;2022-08-01T08:25:20;164551.38;;;22.45;49.06
42945;BME280;28584;42.636;23.294;2022-08-01T08:27:47;164618.84;;;22.70;47.34
42945;BME280;28584;42.636;23.294;2022-08-01T08:30:13;164649.78;;;22.82;47.22
42945;BME280;28584;42.636;23.294;2022-08-01T08:32:38;164862.84;;;23.61;47.11
42945;BME280;28584;42.636;23.294;2022-08-01T08:35:05;164742.81;;;23.16;46.58
42945;BME280;28584;42.636;23.294;2022-08-01T08:37:31;164903.31;;;23.76;46.38
42945;BME280;28584;42.636;23.294;2022-08-01T08:39:57;164986.94;;;24.07;46.54
42945;BME280;28584;42.636;23.294;2022-08-01T08:42:22;164957.28;;;23.96;46.17
42945;BME280;28584;42.636;23.294;2022-08-01T08:44:47;164897.91;;;23.74;46.45
42945;BME280;28584;42.636;23.294;2022-08-01T08:47:14;164795.44;;;23.36;45.41
42945;BME280;28584;42.636;23.294;2022-08-01T08:49:43;164850.69;;;23.56;46.79
42945;BME280;28584;42.636;23.294;2022-08-01T08:52:08;164999.09;;;24.12;47.20
42945;BME280;28584;42.636;23.294;2022-08-01T08:54:35;165102.97;;;24.50;45.22
42945;BME280;28584;42.636;23.294;2022-08-01T08:57:01;165013.91;;;24.17;45.93
42945;BME280;28584;42.636;23.294;2022-08-01T08:59:27;164914.09;;;23.80;44.78
42945;BME280;28584;42.636;23.294;2022-08-01T09:01:54;164759.06;;;23.22;45.79
42945;BME280;28584;42.636;23.294;2022-08-01T09:04:23;164852.06;;;23.57;45.63
42945;BME280;28584;42.636;23.294;2022-08-01T09:06:49;164784.66;;;23.32;46.03
42945;BME280;28584;42.636;23.294;2022-08-01T09:09:14;164717.22;;;23.07;46.58
42945;BME280;28584;42.636;23.294;2022-08-01T09:11:40;164827.78;;;23.48;46.41
42945;BME280;28584;42.636;23.294;2022-08-01T09:14:10;164924.88;;;23.84;45.88
42945;BME280;28584;42.636;23.294;2022-08-01T09:16:41;165084.09;;;24.43;45.25
42945;BME280;28584;42.636;23.294;2022-08-01T09:19:12;164991.00;;;24.08;44.34
42945;BME280;28584;42.636;23.294;2022-08-01T09:21:38;164927.56;;;23.85;45.34
42945;BME280;28584;42.636;23.294;2022-08-01T09:24:03;164835.88;;;23.51;45.89
42945;BME280;28584;42.636;23.294;2022-08-01T09:26:33;164819.72;;;23.45;46.87
42945;BME280;28584;42.636;23.294;2022-08-01T09:29:02;164911.38;;;23.79;47.08
42945;BME280;28584;42.636;23.294;2022-08-01T09:31:28;164817.00;;;23.44;45.55
42945;BME280;28584;42.636;23.294;2022-08-01T09:33:59;164825.09;;;23.47;46.89
42945;BME280;28584;42.636;23.294;2022-08-01T09:36:48;164901.97;;;23.75;46.44
42945;BME280;28584;42.636;23.294;2022-08-01T09:39:17;164900.59;;;23.75;46.34
42945;BME280;28584;42.636;23.294;2022-08-01T09:41:43;164976.16;;;24.03;45.79
42945;BME280;28584;42.636;23.294;2022-08-01T09:44:09;165038.22;;;24.26;45.94
42945;BME280;28584;42.636;23.294;2022-08-01T09:46:34;165000.47;;;24.12;46.58
42945;BME280;28584;42.636;23.294;2022-08-01T09:49:03;165040.91;;;24.27;46.09
42945;BME280;28584;42.636;23.294;2022-08-01T09:51:37;165158.31;;;24.71;45.71
42945;BME280;28584;42.636;23.294;2022-08-01T09:54:04;165210.94;;;24.90;46.38
42945;BME280;28584;42.636;23.294;2022-08-01T09:56:38;165262.25;;;25.09;46.17
42945;BME280;28584;42.636;23.294;2022-08-01T09:59:04;165264.94;;;25.10;46.89
42945;BME280;28584;42.636;23.294;2022-08-01T10:01:43;165235.25;;;24.99;44.39
42945;BME280;28584;42.636;23.294;2022-08-01T10:04:15;165264.94;;;25.10;44.50
42945;BME280;28584;42.636;23.294;2022-08-01T10:06:44;165175.91;;;24.77;44.44
42945;BME280;28584;42.636;23.294;2022-08-01T10:09:11;165352.72;;;25.43;43.94
42945;BME280;28584;42.636;23.294;2022-08-01T10:11:38;165291.94;;;25.20;43.05
42945;BME280;28584;42.636;23.294;2022-08-01T10:14:05;165522.88;;;26.06;42.77
42945;BME280;28584;42.636;23.294;2022-08-01T10:16:32;165291.94;;;25.20;43.22
42945;BME280;28584;42.636;23.294;2022-08-01T10:18:59;165071.94;;;24.39;45.10
42945;BME280;28584;42.636;23.294;2022-08-01T10:21:27;165150.22;;;24.68;45.68
42945;BME280;28584;42.636;23.294;2022-08-01T10:23:54;165159.69;;;24.71;45.71
42945;BME280;28584;42.636;23.294;2022-08-01T10:26:21;165094.88;;;24.47;46.62
42945;BME280;28584;42.636;23.294;2022-08-01T10:28:50;165088.13;;;24.45;45.57
42945;BME280;28584;42.636;23.294;2022-08-01T10:31:17;165120.50;;;24.57;43.05
42945;BME280;28584;42.636;23.294;2022-08-01T10:33:43;165246.03;;;25.03;43.20
42945;BME280;28584;42.636;23.294;2022-08-01T10:36:10;165370.31;;;25.49;43.48
42945;BME280;28584;42.636;23.294;2022-08-01T10:38:36;165058.47;;;24.34;43.77
42945;BME280;28584;42.636;23.294;2022-08-01T10:41:03;165134.00;;;24.62;43.76
42945;BME280;28584;42.636;23.294;2022-08-01T10:43:29;165232.56;;;24.98;43.80
42945;BME280;28584;42.636;23.294;2022-08-01T10:45:55;165270.34;;;25.12;43.74
42945;BME280;28584;42.636;23.294;2022-08-01T10:51:26;165293.28;;;25.21;43.61
42945;BME280;28584;42.636;23.294;2022-08-01T10:53:53;165535.03;;;26.10;41.63
42945;BME280;28584;42.636;23.294;2022-08-01T10:56:19;165389.19;;;25.56;42.13
42945;BME280;28584;42.636;23.294;2022-08-01T10:58:47;165418.91;;;25.67;41.78
42945;BME280;28584;42.636;23.294;2022-08-01T11:04:13;165324.41;;;25.32;42.39
42945;BME280;28584;42.636;23.294;2022-08-01T11:06:43;165178.56;;;24.78;43.67
42945;BME280;28584;42.636;23.294;2022-08-01T11:12:03;165208.25;;;24.89;43.84
42945;BME280;28584;42.636;23.294;2022-08-01T11:14:32;165189.38;;;24.82;43.28
42945;BME280;28584;42.636;23.294;2022-08-01T11:20:07;165027.44;;;24.22;44.64
42945;BME280;28584;42.636;23.294;2022-08-01T11:25:23;165181.25;;;24.79;44.29
42945;BME280;28584;42.636;23.294;2022-08-01T11:33:17;165105.66;;;24.51;45.19
42945;BME280;28584;42.636;23.294;2022-08-01T11:41:24;165181.25;;;24.79;44.46
42945;BME280;28584;42.636;23.294;2022-08-01T11:44:07;165255.50;;;25.07;44.43
42945;BME280;28584;42.636;23.294;2022-08-01T11:54:33;165310.81;;;25.27;45.67
42945;BME280;28584;42.636;23.294;2022-08-01T11:57:03;165231.19;;;24.98;44.85
42945;BME280;28584;42.636;23.294;2022-08-01T11:59:36;165159.69;;;24.71;45.70
42945;BME280;28584;42.636;23.294;2022-08-01T12:02:01;165138.13;;;24.63;45.29
42945;BME280;28584;42.636;23.294;2022-08-01T12:04:47;165104.34;;;24.51;46.92
42945;BME280;28584;42.636;23.294;2022-08-01T12:07:17;165127.28;;;24.59;46.73
42945;BME280;28584;42.636;23.294;2022-08-01T12:09:43;164949.19;;;23.93;47.08
42945;BME280;28584;42.636;23.294;2022-08-01T12:12:09;164849.38;;;23.56;48.18
42945;BME280;28584;42.636;23.294;2022-08-01T12:14:35;164830.50;;;23.49;48.03
42945;BME280;28584;42.636;23.294;2022-08-01T12:17:00;164818.34;;;23.44;47.98
42945;BME280;28584;42.636;23.294;2022-08-01T12:19:26;164848.00;;;23.55;48.82
42945;BME280;28584;42.636;23.294;2022-08-01T12:22:07;164757.69;;;23.22;48.44
42945;BME280;28584;42.636;23.294;2022-08-01T12:24:34;164765.78;;;23.25;48.64
42945;BME280;28584;42.636;23.294;2022-08-01T12:26:59;164730.69;;;23.12;48.78
42945;BME280;28584;42.636;23.294;2022-08-01T12:29:35;164827.78;;;23.48;49.03
42945;BME280;28584;42.636;23.294;2022-08-01T12:32:01;164827.78;;;23.48;48.56
42945;BME280;28584;42.636;23.294;2022-08-01T12:34:28;164838.59;;;23.52;48.82
42945;BME280;28584;42.636;23.294;2022-08-01T12:36:59;164938.34;;;23.89;48.95
42945;BME280;28584;42.636;23.294;2022-08-01T12:39:33;164916.78;;;23.81;48.27
42945;BME280;28584;42.636;23.294;2022-08-01T12:41:59;164939.72;;;23.89;48.39
42945;BME280;28584;42.636;23.294;2022-08-01T12:44:27;164860.16;;;23.60;48.62
42945;BME280;28584;42.636;23.294;2022-08-01T12:46:55;164814.31;;;23.43;48.68
42945;BME280;28584;42.636;23.294;2022-08-01T12:49:21;164852.06;;;23.57;48.72
42945;BME280;28584;42.636;23.294;2022-08-01T12:51:47;164773.88;;;23.28;48.81
42945;BME280;28584;42.636;23.294;2022-08-01T12:54:13;164741.44;;;23.16;49.63
42945;BME280;28584;42.636;23.294;2022-08-01T12:56:38;164776.56;;;23.29;48.79
42945;BME280;28584;42.636;23.294;2022-08-01T13:01:45;164781.97;;;23.31;49.59
42945;BME280;28584;42.636;23.294;2022-08-01T13:04:12;164783.28;;;23.31;48.48
42945;BME280;28584;42.636;23.294;2022-08-01T13:06:37;164792.75;;;23.35;48.27
42945;BME280;28584;42.636;23.294;2022-08-01T13:09:08;164872.31;;;23.64;47.64
42945;BME280;28584;42.636;23.294;2022-08-01T13:11:39;164827.78;;;23.48;47.57
42945;BME280;28584;42.636;23.294;2022-08-01T13:14:05;164889.81;;;23.71;47.73
42945;BME280;28584;42.636;23.294;2022-08-01T13:16:30;164857.47;;;23.59;46.87
42945;BME280;28584;42.636;23.294;2022-08-01T13:18:56;164884.41;;;23.69;46.75
42945;BME280;28584;42.636;23.294;2022-08-01T13:21:24;164924.88;;;23.84;47.37
42945;BME280;28584;42.636;23.294;2022-08-01T13:24:10;164930.25;;;23.86;47.93
42945;BME280;28584;42.636;23.294;2022-08-01T13:29:16;164827.78;;;23.48;48.02
42945;BME280;28584;42.636;23.294;2022-08-01T13:31:42;164835.88;;;23.51;47.85
42945;BME280;28584;42.636;23.294;2022-08-01T13:34:08;164819.72;;;23.45;47.84
42945;BME280;28584;42.636;23.294;2022-08-01T13:36:34;164852.06;;;23.57;47.37